Weather at Kisumu Airport

Public forecast

Using degrees Celsius for public forecast. Weather courtesy of forecast.io.

Current aviation weather report (METAR) for Kisumu Airport

2024/05/29 14:00 (retrieved 1 hour ago)

HKKI 291400Z 25006KT 9999 -TSRA FEW023CB SCT024 27/20 Q1016

Aviation forecast (TAF) for Kisumu Airport

2024/05/29 12:00 (retrieved 3 hours ago)

TAF HKKI 291100Z 2912/3018 22004KT 9999 FEW027 TEMPO 2914/2918 -TSRA FEW021CB SCT022 BKN080 BECMG 2920/2923 06005KT CAVOK BECMG 3001/3004 VRB02KT 9999 FEW020 BECMG 3007/3011 24010KT FEW024CB SCT025